sensor_id;sensor_type;location;lat;lon;timestamp;P1;durP1;ratioP1;P2;durP2;ratioP2
2860;SDS011;1438;50.922;6.704;2023-08-12T00:01:40;37.57;;;29.50;;
2860;SDS011;1438;50.922;6.704;2023-08-12T00:04:06;44.50;;;28.97;;
2860;SDS011;1438;50.922;6.704;2023-08-12T00:06:32;45.87;;;29.87;;
2860;SDS011;1438;50.922;6.704;2023-08-12T00:08:57;39.83;;;28.37;;
2860;SDS011;1438;50.922;6.704;2023-08-12T00:11:23;49.43;;;30.13;;
2860;SDS011;1438;50.922;6.704;2023-08-12T00:13:49;43.30;;;27.47;;
2860;SDS011;1438;50.922;6.704;2023-08-12T00:16:14;36.87;;;24.00;;
2860;SDS011;1438;50.922;6.704;2023-08-12T00:18:40;39.20;;;26.57;;
2860;SDS011;1438;50.922;6.704;2023-08-12T00:21:06;41.17;;;27.40;;
2860;SDS011;1438;50.922;6.704;2023-08-12T00:23:39;37.53;;;26.30;;
2860;SDS011;1438;50.922;6.704;2023-08-12T00:26:05;31.73;;;23.73;;
2860;SDS011;1438;50.922;6.704;2023-08-12T00:28:34;30.30;;;21.63;;
2860;SDS011;1438;50.922;6.704;2023-08-12T00:30:59;39.57;;;26.83;;
2860;SDS011;1438;50.922;6.704;2023-08-12T00:33:25;40.00;;;26.57;;
2860;SDS011;1438;50.922;6.704;2023-08-12T00:35:51;36.07;;;24.77;;
2860;SDS011;1438;50.922;6.704;2023-08-12T00:38:16;43.67;;;27.50;;
2860;SDS011;1438;50.922;6.704;2023-08-12T00:40:42;41.27;;;24.80;;
2860;SDS011;1438;50.922;6.704;2023-08-12T00:43:09;41.77;;;26.07;;
2860;SDS011;1438;50.922;6.704;2023-08-12T00:45:34;35.10;;;22.63;;
2860;SDS011;1438;50.922;6.704;2023-08-12T00:48:01;31.30;;;23.30;;
2860;SDS011;1438;50.922;6.704;2023-08-12T00:50:27;33.97;;;25.50;;
2860;SDS011;1438;50.922;6.704;2023-08-12T00:52:54;29.40;;;23.00;;
2860;SDS011;1438;50.922;6.704;2023-08-12T00:55:19;30.63;;;23.30;;
2860;SDS011;1438;50.922;6.704;2023-08-12T00:57:46;30.97;;;23.00;;
2860;SDS011;1438;50.922;6.704;2023-08-12T01:00:12;34.43;;;22.70;;
2860;SDS011;1438;50.922;6.704;2023-08-12T01:02:38;31.17;;;21.97;;
2860;SDS011;1438;50.922;6.704;2023-08-12T01:05:04;31.63;;;20.80;;
2860;SDS011;1438;50.922;6.704;2023-08-12T01:07:30;36.27;;;24.27;;
2860;SDS011;1438;50.922;6.704;2023-08-12T01:09:56;39.70;;;21.90;;
2860;SDS011;1438;50.922;6.704;2023-08-12T01:12:26;31.60;;;21.10;;
2860;SDS011;1438;50.922;6.704;2023-08-12T01:15:10;30.20;;;20.87;;
2860;SDS011;1438;50.922;6.704;2023-08-12T01:17:41;40.10;;;25.40;;
2860;SDS011;1438;50.922;6.704;2023-08-12T01:20:08;26.43;;;18.70;;
2860;SDS011;1438;50.922;6.704;2023-08-12T01:22:39;29.77;;;23.20;;
2860;SDS011;1438;50.922;6.704;2023-08-12T01:25:06;34.23;;;23.77;;
2860;SDS011;1438;50.922;6.704;2023-08-12T01:27:33;30.07;;;22.13;;
2860;SDS011;1438;50.922;6.704;2023-08-12T01:30:02;34.60;;;24.90;;
2860;SDS011;1438;50.922;6.704;2023-08-12T01:37:45;33.80;;;24.23;;
2860;SDS011;1438;50.922;6.704;2023-08-12T01:40:13;37.27;;;21.00;;
2860;SDS011;1438;50.922;6.704;2023-08-12T01:42:40;37.20;;;25.33;;
2860;SDS011;1438;50.922;6.704;2023-08-12T01:45:06;31.57;;;23.70;;
2860;SDS011;1438;50.922;6.704;2023-08-12T01:47:32;36.57;;;24.53;;
2860;SDS011;1438;50.922;6.704;2023-08-12T01:49:58;33.70;;;23.27;;
2860;SDS011;1438;50.922;6.704;2023-08-12T01:52:24;38.70;;;24.73;;
2860;SDS011;1438;50.922;6.704;2023-08-12T01:54:49;40.63;;;26.37;;
2860;SDS011;1438;50.922;6.704;2023-08-12T01:57:15;39.23;;;24.63;;
2860;SDS011;1438;50.922;6.704;2023-08-12T01:59:41;35.10;;;23.90;;
2860;SDS011;1438;50.922;6.704;2023-08-12T02:02:09;33.87;;;24.57;;
2860;SDS011;1438;50.922;6.704;2023-08-12T02:04:34;37.93;;;24.87;;
2860;SDS011;1438;50.922;6.704;2023-08-12T02:07:02;35.47;;;24.33;;
2860;SDS011;1438;50.922;6.704;2023-08-12T02:09:27;37.33;;;24.07;;
2860;SDS011;1438;50.922;6.704;2023-08-12T02:11:53;39.63;;;26.90;;
2860;SDS011;1438;50.922;6.704;2023-08-12T02:14:19;35.30;;;24.07;;
2860;SDS011;1438;50.922;6.704;2023-08-12T02:16:44;36.33;;;24.10;;
2860;SDS011;1438;50.922;6.704;2023-08-12T02:19:10;33.70;;;23.50;;
2860;SDS011;1438;50.922;6.704;2023-08-12T02:21:35;48.63;;;25.57;;
2860;SDS011;1438;50.922;6.704;2023-08-12T02:24:01;49.43;;;27.17;;
2860;SDS011;1438;50.922;6.704;2023-08-12T02:26:26;39.33;;;26.23;;
2860;SDS011;1438;50.922;6.704;2023-08-12T02:28:52;38.53;;;28.37;;
2860;SDS011;1438;50.922;6.704;2023-08-12T02:31:17;35.03;;;24.33;;
2860;SDS011;1438;50.922;6.704;2023-08-12T02:33:43;41.63;;;27.03;;
2860;SDS011;1438;50.922;6.704;2023-08-12T02:36:09;49.23;;;28.83;;
2860;SDS011;1438;50.922;6.704;2023-08-12T02:38:34;42.60;;;27.50;;
2860;SDS011;1438;50.922;6.704;2023-08-12T02:41:00;42.53;;;29.33;;
2860;SDS011;1438;50.922;6.704;2023-08-12T02:43:26;43.73;;;29.13;;
2860;SDS011;1438;50.922;6.704;2023-08-12T02:45:51;46.17;;;29.60;;
2860;SDS011;1438;50.922;6.704;2023-08-12T02:48:17;38.40;;;26.90;;
2860;SDS011;1438;50.922;6.704;2023-08-12T02:50:43;40.13;;;27.33;;
2860;SDS011;1438;50.922;6.704;2023-08-12T02:53:09;48.03;;;31.10;;
2860;SDS011;1438;50.922;6.704;2023-08-12T02:55:34;44.33;;;31.20;;
2860;SDS011;1438;50.922;6.704;2023-08-12T02:58:00;52.73;;;31.67;;
2860;SDS011;1438;50.922;6.704;2023-08-12T03:00:27;44.07;;;30.60;;
2860;SDS011;1438;50.922;6.704;2023-08-12T03:02:53;41.93;;;28.53;;
2860;SDS011;1438;50.922;6.704;2023-08-12T03:05:19;40.50;;;29.37;;
2860;SDS011;1438;50.922;6.704;2023-08-12T03:07:45;45.90;;;29.13;;
2860;SDS011;1438;50.922;6.704;2023-08-12T03:10:11;44.00;;;28.03;;
2860;SDS011;1438;50.922;6.704;2023-08-12T03:12:36;54.93;;;28.37;;
2860;SDS011;1438;50.922;6.704;2023-08-12T03:15:02;43.80;;;26.73;;
2860;SDS011;1438;50.922;6.704;2023-08-12T03:17:28;43.43;;;27.60;;
2860;SDS011;1438;50.922;6.704;2023-08-12T03:19:56;41.00;;;26.43;;
2860;SDS011;1438;50.922;6.704;2023-08-12T03:22:24;41.70;;;27.73;;
2860;SDS011;1438;50.922;6.704;2023-08-12T03:24:50;40.63;;;26.37;;
2860;SDS011;1438;50.922;6.704;2023-08-12T03:27:15;37.93;;;26.30;;
2860;SDS011;1438;50.922;6.704;2023-08-12T03:29:41;38.00;;;25.33;;
2860;SDS011;1438;50.922;6.704;2023-08-12T03:32:07;45.47;;;25.80;;
2860;SDS011;1438;50.922;6.704;2023-08-12T03:34:32;36.50;;;24.40;;
2860;SDS011;1438;50.922;6.704;2023-08-12T03:36:58;37.20;;;24.37;;
2860;SDS011;1438;50.922;6.704;2023-08-12T03:39:24;38.50;;;24.43;;
2860;SDS011;1438;50.922;6.704;2023-08-12T03:41:49;35.40;;;23.50;;
2860;SDS011;1438;50.922;6.704;2023-08-12T03:44:18;40.83;;;25.80;;
2860;SDS011;1438;50.922;6.704;2023-08-12T03:46:44;35.97;;;25.80;;
2860;SDS011;1438;50.922;6.704;2023-08-12T03:49:09;35.07;;;24.67;;
2860;SDS011;1438;50.922;6.704;2023-08-12T03:51:35;31.33;;;23.73;;
2860;SDS011;1438;50.922;6.704;2023-08-12T03:54:00;36.90;;;25.03;;
2860;SDS011;1438;50.922;6.704;2023-08-12T03:56:26;33.20;;;25.30;;
2860;SDS011;1438;50.922;6.704;2023-08-12T03:58:52;43.43;;;27.10;;
2860;SDS011;1438;50.922;6.704;2023-08-12T04:01:17;39.27;;;26.70;;
2860;SDS011;1438;50.922;6.704;2023-08-12T04:03:43;50.03;;;31.93;;
2860;SDS011;1438;50.922;6.704;2023-08-12T04:06:08;51.53;;;31.10;;
2860;SDS011;1438;50.922;6.704;2023-08-12T04:08:34;57.60;;;33.10;;
2860;SDS011;1438;50.922;6.704;2023-08-12T04:10:59;56.83;;;34.00;;
2860;SDS011;1438;50.922;6.704;2023-08-12T04:13:25;57.20;;;35.47;;
2860;SDS011;1438;50.922;6.704;2023-08-12T04:15:51;52.60;;;37.93;;
2860;SDS011;1438;50.922;6.704;2023-08-12T04:18:18;63.07;;;41.40;;
2860;SDS011;1438;50.922;6.704;2023-08-12T04:20:45;83.00;;;45.17;;
2860;SDS011;1438;50.922;6.704;2023-08-12T04:23:11;77.83;;;46.27;;
2860;SDS011;1438;50.922;6.704;2023-08-12T04:25:37;84.50;;;46.67;;
2860;SDS011;1438;50.922;6.704;2023-08-12T04:28:03;90.00;;;50.33;;
2860;SDS011;1438;50.922;6.704;2023-08-12T04:30:29;93.80;;;49.23;;
2860;SDS011;1438;50.922;6.704;2023-08-12T04:32:54;97.70;;;48.40;;
2860;SDS011;1438;50.922;6.704;2023-08-12T04:35:20;76.00;;;47.30;;
2860;SDS011;1438;50.922;6.704;2023-08-12T04:37:45;88.10;;;47.80;;
2860;SDS011;1438;50.922;6.704;2023-08-12T04:40:11;77.07;;;46.47;;
2860;SDS011;1438;50.922;6.704;2023-08-12T04:42:36;83.37;;;48.07;;
2860;SDS011;1438;50.922;6.704;2023-08-12T04:45:02;82.70;;;47.40;;
2860;SDS011;1438;50.922;6.704;2023-08-12T04:47:28;68.27;;;45.00;;
2860;SDS011;1438;50.922;6.704;2023-08-12T04:49:54;77.10;;;45.93;;
2860;SDS011;1438;50.922;6.704;2023-08-12T04:52:20;81.00;;;46.60;;
2860;SDS011;1438;50.922;6.704;2023-08-12T04:54:45;66.50;;;42.37;;
2860;SDS011;1438;50.922;6.704;2023-08-12T04:57:11;67.23;;;44.87;;
2860;SDS011;1438;50.922;6.704;2023-08-12T04:59:37;65.37;;;41.57;;
2860;SDS011;1438;50.922;6.704;2023-08-12T05:02:02;73.90;;;43.90;;
2860;SDS011;1438;50.922;6.704;2023-08-12T05:04:28;65.53;;;43.03;;
2860;SDS011;1438;50.922;6.704;2023-08-12T05:06:53;76.87;;;45.73;;
2860;SDS011;1438;50.922;6.704;2023-08-12T05:09:19;69.10;;;43.93;;
2860;SDS011;1438;50.922;6.704;2023-08-12T05:11:44;63.93;;;40.97;;
2860;SDS011;1438;50.922;6.704;2023-08-12T05:14:10;58.27;;;38.67;;
2860;SDS011;1438;50.922;6.704;2023-08-12T05:16:36;62.97;;;43.43;;
2860;SDS011;1438;50.922;6.704;2023-08-12T05:19:01;68.57;;;43.57;;
2860;SDS011;1438;50.922;6.704;2023-08-12T05:21:27;56.53;;;39.87;;
2860;SDS011;1438;50.922;6.704;2023-08-12T05:23:52;52.10;;;38.30;;
2860;SDS011;1438;50.922;6.704;2023-08-12T05:26:18;59.03;;;40.53;;
2860;SDS011;1438;50.922;6.704;2023-08-12T05:28:45;51.93;;;36.90;;
2860;SDS011;1438;50.922;6.704;2023-08-12T05:31:10;56.83;;;38.63;;
2860;SDS011;1438;50.922;6.704;2023-08-12T05:33:36;47.63;;;36.43;;
2860;SDS011;1438;50.922;6.704;2023-08-12T05:36:02;51.20;;;36.60;;
2860;SDS011;1438;50.922;6.704;2023-08-12T05:38:28;48.40;;;34.53;;
2860;SDS011;1438;50.922;6.704;2023-08-12T05:40:53;51.17;;;35.80;;
2860;SDS011;1438;50.922;6.704;2023-08-12T05:43:19;48.40;;;35.87;;
2860;SDS011;1438;50.922;6.704;2023-08-12T05:45:44;43.70;;;33.40;;
2860;SDS011;1438;50.922;6.704;2023-08-12T05:48:10;44.63;;;31.70;;
2860;SDS011;1438;50.922;6.704;2023-08-12T05:50:35;44.50;;;32.40;;
2860;SDS011;1438;50.922;6.704;2023-08-12T05:53:01;39.23;;;29.40;;
2860;SDS011;1438;50.922;6.704;2023-08-12T05:55:26;44.80;;;29.93;;
2860;SDS011;1438;50.922;6.704;2023-08-12T05:57:52;46.50;;;30.40;;
2860;SDS011;1438;50.922;6.704;2023-08-12T06:00:18;39.07;;;27.40;;
2860;SDS011;1438;50.922;6.704;2023-08-12T06:02:43;35.97;;;28.00;;
2860;SDS011;1438;50.922;6.704;2023-08-12T06:05:09;41.20;;;30.30;;
2860;SDS011;1438;50.922;6.704;2023-08-12T06:07:34;41.90;;;29.17;;
2860;SDS011;1438;50.922;6.704;2023-08-12T06:10:00;33.53;;;27.27;;
2860;SDS011;1438;50.922;6.704;2023-08-12T06:12:26;39.90;;;27.00;;
2860;SDS011;1438;50.922;6.704;2023-08-12T06:14:52;38.53;;;26.53;;
2860;SDS011;1438;50.922;6.704;2023-08-12T06:17:17;32.60;;;24.67;;
2860;SDS011;1438;50.922;6.704;2023-08-12T06:19:43;32.80;;;23.60;;
2860;SDS011;1438;50.922;6.704;2023-08-12T06:22:09;31.90;;;24.03;;
2860;SDS011;1438;50.922;6.704;2023-08-12T06:24:34;29.00;;;22.73;;
2860;SDS011;1438;50.922;6.704;2023-08-12T06:27:00;31.20;;;22.07;;
2860;SDS011;1438;50.922;6.704;2023-08-12T06:29:25;27.00;;;20.43;;
2860;SDS011;1438;50.922;6.704;2023-08-12T06:31:52;25.03;;;18.30;;
2860;SDS011;1438;50.922;6.704;2023-08-12T06:34:18;21.70;;;17.50;;
2860;SDS011;1438;50.922;6.704;2023-08-12T06:36:43;21.93;;;18.37;;
2860;SDS011;1438;50.922;6.704;2023-08-12T06:39:09;17.47;;;14.93;;
2860;SDS011;1438;50.922;6.704;2023-08-12T06:41:35;18.30;;;16.33;;
2860;SDS011;1438;50.922;6.704;2023-08-12T06:44:00;20.03;;;16.80;;
2860;SDS011;1438;50.922;6.704;2023-08-12T06:46:26;24.57;;;17.23;;
2860;SDS011;1438;50.922;6.704;2023-08-12T06:48:51;18.27;;;16.10;;
2860;SDS011;1438;50.922;6.704;2023-08-12T06:51:17;16.40;;;14.60;;
2860;SDS011;1438;50.922;6.704;2023-08-12T06:53:42;16.40;;;13.73;;
2860;SDS011;1438;50.922;6.704;2023-08-12T06:56:08;17.80;;;13.43;;
2860;SDS011;1438;50.922;6.704;2023-08-12T06:58:34;15.77;;;12.60;;
2860;SDS011;1438;50.922;6.704;2023-08-12T07:00:59;16.30;;;10.73;;
2860;SDS011;1438;50.922;6.704;2023-08-12T07:03:25;12.67;;;9.83;;
2860;SDS011;1438;50.922;6.704;2023-08-12T07:05:52;12.00;;;9.27;;
2860;SDS011;1438;50.922;6.704;2023-08-12T07:08:18;11.67;;;9.13;;
2860;SDS011;1438;50.922;6.704;2023-08-12T07:10:44;10.33;;;8.60;;
2860;SDS011;1438;50.922;6.704;2023-08-12T07:13:09;9.20;;;8.30;;
2860;SDS011;1438;50.922;6.704;2023-08-12T07:15:35;10.33;;;8.03;;
2860;SDS011;1438;50.922;6.704;2023-08-12T07:18:01;12.27;;;6.70;;
2860;SDS011;1438;50.922;6.704;2023-08-12T07:20:26;8.73;;;7.60;;
2860;SDS011;1438;50.922;6.704;2023-08-12T07:22:52;7.73;;;6.43;;
2860;SDS011;1438;50.922;6.704;2023-08-12T07:25:18;9.30;;;5.60;;
2860;SDS011;1438;50.922;6.704;2023-08-12T07:27:43;7.03;;;6.30;;
2860;SDS011;1438;50.922;6.704;2023-08-12T07:30:09;8.33;;;6.00;;
2860;SDS011;1438;50.922;6.704;2023-08-12T07:32:38;7.23;;;5.70;;
2860;SDS011;1438;50.922;6.704;2023-08-12T07:35:04;8.77;;;6.70;;
2860;SDS011;1438;50.922;6.704;2023-08-12T07:37:33;7.30;;;5.37;;
2860;SDS011;1438;50.922;6.704;2023-08-12T07:39:58;10.20;;;6.60;;
2860;SDS011;1438;50.922;6.704;2023-08-12T07:42:24;11.53;;;5.80;;
2860;SDS011;1438;50.922;6.704;2023-08-12T07:44:49;7.90;;;6.40;;
2860;SDS011;1438;50.922;6.704;2023-08-12T07:47:15;6.90;;;5.40;;
2860;SDS011;1438;50.922;6.704;2023-08-12T07:49:41;6.03;;;5.43;;
2860;SDS011;1438;50.922;6.704;2023-08-12T07:52:07;10.50;;;5.83;;
2860;SDS011;1438;50.922;6.704;2023-08-12T07:54:33;11.07;;;5.83;;
2860;SDS011;1438;50.922;6.704;2023-08-12T07:56:58;6.10;;;5.50;;
2860;SDS011;1438;50.922;6.704;2023-08-12T07:59:24;5.97;;;5.47;;
2860;SDS011;1438;50.922;6.704;2023-08-12T08:01:50;10.43;;;5.53;;
2860;SDS011;1438;50.922;6.704;2023-08-12T08:04:16;11.47;;;5.20;;
2860;SDS011;1438;50.922;6.704;2023-08-12T08:06:42;7.27;;;4.43;;
2860;SDS011;1438;50.922;6.704;2023-08-12T08:09:08;6.23;;;4.23;;
2860;SDS011;1438;50.922;6.704;2023-08-12T08:11:34;9.00;;;4.30;;
2860;SDS011;1438;50.922;6.704;2023-08-12T08:14:00;4.63;;;3.90;;
2860;SDS011;1438;50.922;6.704;2023-08-12T08:16:26;3.57;;;3.27;;
2860;SDS011;1438;50.922;6.704;2023-08-12T08:18:51;14.50;;;5.60;;
2860;SDS011;1438;50.922;6.704;2023-08-12T08:21:17;6.70;;;4.27;;
2860;SDS011;1438;50.922;6.704;2023-08-12T08:23:43;5.03;;;4.10;;
2860;SDS011;1438;50.922;6.704;2023-08-12T08:26:09;5.00;;;4.10;;
2860;SDS011;1438;50.922;6.704;2023-08-12T08:28:34;3.50;;;3.20;;
2860;SDS011;1438;50.922;6.704;2023-08-12T08:31:00;5.43;;;3.70;;
2860;SDS011;1438;50.922;6.704;2023-08-12T08:33:26;6.37;;;4.33;;
2860;SDS011;1438;50.922;6.704;2023-08-12T08:35:52;8.20;;;4.20;;
2860;SDS011;1438;50.922;6.704;2023-08-12T08:38:19;3.40;;;3.10;;
2860;SDS011;1438;50.922;6.704;2023-08-12T08:40:45;4.37;;;3.03;;
2860;SDS011;1438;50.922;6.704;2023-08-12T08:43:11;4.53;;;3.20;;
2860;SDS011;1438;50.922;6.704;2023-08-12T08:45:51;8.53;;;3.50;;
2860;SDS011;1438;50.922;6.704;2023-08-12T08:48:18;4.43;;;4.03;;
2860;SDS011;1438;50.922;6.704;2023-08-12T08:50:45;4.87;;;3.60;;
2860;SDS011;1438;50.922;6.704;2023-08-12T08:53:12;3.53;;;3.23;;
2860;SDS011;1438;50.922;6.704;2023-08-12T08:55:41;10.70;;;4.07;;
2860;SDS011;1438;50.922;6.704;2023-08-12T08:58:06;6.03;;;2.90;;
2860;SDS011;1438;50.922;6.704;2023-08-12T09:00:32;3.13;;;2.77;;
2860;SDS011;1438;50.922;6.704;2023-08-12T09:02:58;4.80;;;2.60;;
2860;SDS011;1438;50.922;6.704;2023-08-12T09:05:24;4.40;;;2.50;;
2860;SDS011;1438;50.922;6.704;2023-08-12T09:07:51;2.80;;;2.40;;
2860;SDS011;1438;50.922;6.704;2023-08-12T09:10:17;2.77;;;2.53;;
2860;SDS011;1438;50.922;6.704;2023-08-12T09:12:45;2.57;;;1.87;;
2860;SDS011;1438;50.922;6.704;2023-08-12T09:15:11;2.63;;;1.73;;
2860;SDS011;1438;50.922;6.704;2023-08-12T09:17:37;4.00;;;1.87;;
2860;SDS011;1438;50.922;6.704;2023-08-12T09:20:03;2.00;;;1.80;;
2860;SDS011;1438;50.922;6.704;2023-08-12T09:22:36;1.63;;;1.53;;
2860;SDS011;1438;50.922;6.704;2023-08-12T09:25:02;2.47;;;2.23;;
2860;SDS011;1438;50.922;6.704;2023-08-12T09:27:30;3.80;;;1.90;;
2860;SDS011;1438;50.922;6.704;2023-08-12T09:29:56;1.90;;;1.70;;
2860;SDS011;1438;50.922;6.704;2023-08-12T09:32:24;2.47;;;1.30;;
2860;SDS011;1438;50.922;6.704;2023-08-12T09:34:54;1.77;;;1.57;;
2860;SDS011;1438;50.922;6.704;2023-08-12T09:37:20;2.00;;;1.53;;
2860;SDS011;1438;50.922;6.704;2023-08-12T09:39:49;1.63;;;1.53;;
2860;SDS011;1438;50.922;6.704;2023-08-12T09:42:18;3.40;;;1.50;;
2860;SDS011;1438;50.922;6.704;2023-08-12T09:44:44;4.60;;;1.10;;
2860;SDS011;1438;50.922;6.704;2023-08-12T09:47:10;1.47;;;1.10;;
2860;SDS011;1438;50.922;6.704;2023-08-12T09:49:36;1.20;;;0.80;;
2860;SDS011;1438;50.922;6.704;2023-08-12T09:52:06;2.80;;;1.27;;
2860;SDS011;1438;50.922;6.704;2023-08-12T09:54:32;1.30;;;0.97;;
2860;SDS011;1438;50.922;6.704;2023-08-12T09:57:02;1.23;;;0.90;;
2860;SDS011;1438;50.922;6.704;2023-08-12T09:59:30;5.83;;;1.00;;
2860;SDS011;1438;50.922;6.704;2023-08-12T10:01:57;1.00;;;0.90;;
2860;SDS011;1438;50.922;6.704;2023-08-12T10:04:23;1.07;;;0.90;;
2860;SDS011;1438;50.922;6.704;2023-08-12T10:06:53;1.73;;;0.90;;
2860;SDS011;1438;50.922;6.704;2023-08-12T10:09:19;2.73;;;0.80;;
2860;SDS011;1438;50.922;6.704;2023-08-12T10:11:46;1.10;;;0.90;;
2860;SDS011;1438;50.922;6.704;2023-08-12T10:14:12;1.00;;;0.80;;
2860;SDS011;1438;50.922;6.704;2023-08-12T10:16:39;3.03;;;1.20;;
2860;SDS011;1438;50.922;6.704;2023-08-12T10:19:10;0.93;;;0.83;;
2860;SDS011;1438;50.922;6.704;2023-08-12T10:21:36;2.80;;;1.00;;
2860;SDS011;1438;50.922;6.704;2023-08-12T10:24:03;1.30;;;1.10;;
2860;SDS011;1438;50.922;6.704;2023-08-12T10:26:30;1.07;;;0.83;;
2860;SDS011;1438;50.922;6.704;2023-08-12T10:28:57;1.77;;;1.27;;
2860;SDS011;1438;50.922;6.704;2023-08-12T10:31:24;1.20;;;0.97;;
2860;SDS011;1438;50.922;6.704;2023-08-12T10:33:53;1.37;;;0.90;;
2860;SDS011;1438;50.922;6.704;2023-08-12T10:36:21;1.00;;;0.90;;
2860;SDS011;1438;50.922;6.704;2023-08-12T10:38:47;1.67;;;0.80;;
2860;SDS011;1438;50.922;6.704;2023-08-12T10:44:01;3.30;;;1.00;;
2860;SDS011;1438;50.922;6.704;2023-08-12T10:46:33;1.00;;;0.80;;
2860;SDS011;1438;50.922;6.704;2023-08-12T10:49:04;1.70;;;1.27;;
2860;SDS011;1438;50.922;6.704;2023-08-12T10:51:42;1.40;;;0.90;;
2860;SDS011;1438;50.922;6.704;2023-08-12T10:54:14;1.50;;;1.20;;
2860;SDS011;1438;50.922;6.704;2023-08-12T11:02:17;1.27;;;1.10;;
2860;SDS011;1438;50.922;6.704;2023-08-12T11:05:06;4.03;;;1.87;;
2860;SDS011;1438;50.922;6.704;2023-08-12T11:10:17;1.70;;;1.60;;
2860;SDS011;1438;50.922;6.704;2023-08-12T11:12:54;2.33;;;1.63;;
2860;SDS011;1438;50.922;6.704;2023-08-12T11:15:33;3.07;;;1.90;;
2860;SDS011;1438;50.922;6.704;2023-08-12T11:18:13;2.53;;;1.20;;
2860;SDS011;1438;50.922;6.704;2023-08-12T11:20:41;1.57;;;1.23;;
2860;SDS011;1438;50.922;6.704;2023-08-12T11:23:07;1.77;;;1.30;;
2860;SDS011;1438;50.922;6.704;2023-08-12T11:25:35;1.47;;;1.30;;
2860;SDS011;1438;50.922;6.704;2023-08-12T11:28:03;2.07;;;1.33;;
2860;SDS011;1438;50.922;6.704;2023-08-12T11:30:29;2.03;;;1.10;;
2860;SDS011;1438;50.922;6.704;2023-08-12T11:32:55;2.03;;;1.33;;
2860;SDS011;1438;50.922;6.704;2023-08-12T11:35:21;1.43;;;1.33;;
2860;SDS011;1438;50.922;6.704;2023-08-12T11:37:49;2.63;;;1.47;;
2860;SDS011;1438;50.922;6.704;2023-08-12T11:40:17;2.60;;;1.60;;
2860;SDS011;1438;50.922;6.704;2023-08-12T11:42:44;2.70;;;1.20;;
2860;SDS011;1438;50.922;6.704;2023-08-12T11:45:14;1.40;;;1.00;;
2860;SDS011;1438;50.922;6.704;2023-08-12T11:47:44;1.53;;;1.23;;
2860;SDS011;1438;50.922;6.704;2023-08-12T11:50:12;1.43;;;1.10;;
2860;SDS011;1438;50.922;6.704;2023-08-12T11:52:38;3.37;;;1.30;;
2860;SDS011;1438;50.922;6.704;2023-08-12T11:55:04;3.83;;;1.30;;
2860;SDS011;1438;50.922;6.704;2023-08-12T11:57:32;1.93;;;1.40;;
2860;SDS011;1438;50.922;6.704;2023-08-12T12:00:02;2.37;;;1.20;;
2860;SDS011;1438;50.922;6.704;2023-08-12T12:02:36;2.17;;;1.33;;
2860;SDS011;1438;50.922;6.704;2023-08-12T12:05:10;1.43;;;1.20;;
2860;SDS011;1438;50.922;6.704;2023-08-12T12:07:36;2.50;;;1.27;;
2860;SDS011;1438;50.922;6.704;2023-08-12T12:10:02;2.83;;;1.60;;
2860;SDS011;1438;50.922;6.704;2023-08-12T12:12:30;2.80;;;1.20;;
2860;SDS011;1438;50.922;6.704;2023-08-12T12:15:02;1.73;;;1.57;;
2860;SDS011;1438;50.922;6.704;2023-08-12T12:17:28;2.40;;;1.17;;
2860;SDS011;1438;50.922;6.704;2023-08-12T12:19:55;2.20;;;1.10;;
2860;SDS011;1438;50.922;6.704;2023-08-12T12:22:28;3.00;;;1.50;;
2860;SDS011;1438;50.922;6.704;2023-08-12T12:24:59;2.50;;;1.20;;
2860;SDS011;1438;50.922;6.704;2023-08-12T12:27:26;2.30;;;1.17;;
2860;SDS011;1438;50.922;6.704;2023-08-12T12:29:52;2.70;;;1.33;;
2860;SDS011;1438;50.922;6.704;2023-08-12T12:32:18;1.50;;;1.20;;
2860;SDS011;1438;50.922;6.704;2023-08-12T12:34:45;4.10;;;1.40;;
2860;SDS011;1438;50.922;6.704;2023-08-12T12:37:11;2.40;;;1.47;;
2860;SDS011;1438;50.922;6.704;2023-08-12T12:39:38;1.87;;;1.50;;
2860;SDS011;1438;50.922;6.704;2023-08-12T12:42:03;2.60;;;1.63;;
2860;SDS011;1438;50.922;6.704;2023-08-12T12:44:29;2.40;;;1.17;;
2860;SDS011;1438;50.922;6.704;2023-08-12T12:46:55;1.83;;;0.90;;
2860;SDS011;1438;50.922;6.704;2023-08-12T12:49:20;1.27;;;0.80;;
2860;SDS011;1438;50.922;6.704;2023-08-12T12:51:46;1.20;;;0.80;;
2860;SDS011;1438;50.922;6.704;2023-08-12T12:54:12;1.63;;;0.60;;
2860;SDS011;1438;50.922;6.704;2023-08-12T12:56:37;2.60;;;1.23;;
2860;SDS011;1438;50.922;6.704;2023-08-12T12:59:03;2.33;;;1.33;;
2860;SDS011;1438;50.922;6.704;2023-08-12T13:01:29;1.10;;;0.73;;
2860;SDS011;1438;50.922;6.704;2023-08-12T13:03:54;2.03;;;1.23;;
2860;SDS011;1438;50.922;6.704;2023-08-12T13:06:20;3.00;;;0.97;;
2860;SDS011;1438;50.922;6.704;2023-08-12T13:08:45;1.00;;;0.90;;
2860;SDS011;1438;50.922;6.704;2023-08-12T13:11:11;5.67;;;0.90;;
2860;SDS011;1438;50.922;6.704;2023-08-12T13:13:36;1.23;;;0.90;;
2860;SDS011;1438;50.922;6.704;2023-08-12T13:16:02;1.37;;;1.00;;
2860;SDS011;1438;50.922;6.704;2023-08-12T13:18:28;1.20;;;1.10;;
2860;SDS011;1438;50.922;6.704;2023-08-12T13:20:53;1.37;;;1.17;;
2860;SDS011;1438;50.922;6.704;2023-08-12T13:23:19;2.70;;;0.97;;
2860;SDS011;1438;50.922;6.704;2023-08-12T13:25:44;1.00;;;0.90;;
2860;SDS011;1438;50.922;6.704;2023-08-12T13:28:10;1.37;;;0.77;;
2860;SDS011;1438;50.922;6.704;2023-08-12T13:30:35;1.50;;;1.33;;
2860;SDS011;1438;50.922;6.704;2023-08-12T13:33:02;1.80;;;0.90;;
2860;SDS011;1438;50.922;6.704;2023-08-12T13:35:28;1.17;;;1.00;;
2860;SDS011;1438;50.922;6.704;2023-08-12T13:37:54;1.00;;;0.90;;
2860;SDS011;1438;50.922;6.704;2023-08-12T13:40:19;1.10;;;1.00;;
2860;SDS011;1438;50.922;6.704;2023-08-12T13:42:45;1.20;;;1.10;;
2860;SDS011;1438;50.922;6.704;2023-08-12T13:45:12;1.03;;;0.90;;
2860;SDS011;1438;50.922;6.704;2023-08-12T13:47:38;1.03;;;0.90;;
2860;SDS011;1438;50.922;6.704;2023-08-12T13:50:04;1.70;;;1.03;;
2860;SDS011;1438;50.922;6.704;2023-08-12T13:52:30;1.77;;;0.90;;
2860;SDS011;1438;50.922;6.704;2023-08-12T13:54:56;1.00;;;0.70;;
2860;SDS011;1438;50.922;6.704;2023-08-12T13:57:21;0.80;;;0.60;;
2860;SDS011;1438;50.922;6.704;2023-08-12T13:59:47;2.03;;;0.70;;
2860;SDS011;1438;50.922;6.704;2023-08-12T14:02:13;2.80;;;0.60;;
2860;SDS011;1438;50.922;6.704;2023-08-12T14:04:39;1.00;;;0.70;;
2860;SDS011;1438;50.922;6.704;2023-08-12T14:07:05;1.17;;;0.70;;
2860;SDS011;1438;50.922;6.704;2023-08-12T14:09:31;1.20;;;0.90;;
2860;SDS011;1438;50.922;6.704;2023-08-12T14:11:57;1.13;;;0.70;;
2860;SDS011;1438;50.922;6.704;2023-08-12T14:14:26;2.83;;;0.70;;
2860;SDS011;1438;50.922;6.704;2023-08-12T14:16:55;1.10;;;0.80;;
2860;SDS011;1438;50.922;6.704;2023-08-12T14:19:21;0.90;;;0.70;;
2860;SDS011;1438;50.922;6.704;2023-08-12T14:21:47;0.87;;;0.63;;
2860;SDS011;1438;50.922;6.704;2023-08-12T14:24:12;2.30;;;0.97;;
2860;SDS011;1438;50.922;6.704;2023-08-12T14:26:39;0.87;;;0.60;;
2860;SDS011;1438;50.922;6.704;2023-08-12T14:29:04;1.07;;;0.60;;
2860;SDS011;1438;50.922;6.704;2023-08-12T14:31:30;1.10;;;0.70;;
2860;SDS011;1438;50.922;6.704;2023-08-12T14:33:56;0.83;;;0.67;;
2860;SDS011;1438;50.922;6.704;2023-08-12T14:36:22;1.97;;;0.80;;
2860;SDS011;1438;50.922;6.704;2023-08-12T14:38:49;1.37;;;0.73;;
2860;SDS011;1438;50.922;6.704;2023-08-12T14:41:15;0.90;;;0.60;;
2860;SDS011;1438;50.922;6.704;2023-08-12T14:43:41;1.83;;;1.00;;
2860;SDS011;1438;50.922;6.704;2023-08-12T14:46:06;2.30;;;0.70;;
2860;SDS011;1438;50.922;6.704;2023-08-12T14:48:32;1.73;;;0.87;;
2860;SDS011;1438;50.922;6.704;2023-08-12T14:50:58;2.13;;;0.90;;
2860;SDS011;1438;50.922;6.704;2023-08-12T14:53:24;2.03;;;0.90;;
2860;SDS011;1438;50.922;6.704;2023-08-12T14:55:50;1.60;;;0.63;;
2860;SDS011;1438;50.922;6.704;2023-08-12T14:58:16;2.70;;;0.93;;
2860;SDS011;1438;50.922;6.704;2023-08-12T15:00:42;1.10;;;0.90;;
2860;SDS011;1438;50.922;6.704;2023-08-12T15:03:07;5.00;;;0.90;;
2860;SDS011;1438;50.922;6.704;2023-08-12T15:05:33;1.47;;;0.70;;
2860;SDS011;1438;50.922;6.704;2023-08-12T15:07:58;0.90;;;0.70;;
2860;SDS011;1438;50.922;6.704;2023-08-12T15:10:24;1.40;;;0.80;;
2860;SDS011;1438;50.922;6.704;2023-08-12T15:12:49;1.87;;;0.80;;
2860;SDS011;1438;50.922;6.704;2023-08-12T15:15:15;2.60;;;0.93;;